createdAt,value
2022-10-02T00:06:48.073Z,12.50
2022-10-02T00:16:54.483Z,12.53
2022-10-02T00:27:04.741Z,12.58
2022-10-02T00:37:20.678Z,12.61
2022-10-02T00:47:38.446Z,12.30
2022-10-02T00:57:57.873Z,12.34
2022-10-02T01:08:02.542Z,12.20
2022-10-02T01:18:07.176Z,12.04
2022-10-02T01:28:12.139Z,11.94
2022-10-02T01:38:17.915Z,12.03
2022-10-02T01:48:36.523Z,12.06
2022-10-02T01:58:50.204Z,12.05
2022-10-02T02:09:02.176Z,12.06
2022-10-02T02:19:11.873Z,11.89
2022-10-02T02:29:19.820Z,11.81
2022-10-02T02:39:29.565Z,11.79
2022-10-02T02:49:45.456Z,11.78
2022-10-02T02:59:50.398Z,11.76
2022-10-02T03:10:02.527Z,11.70
2022-10-02T03:20:12.520Z,11.63
2022-10-02T03:30:20.597Z,11.67
2022-10-02T03:40:24.449Z,11.74
2022-10-02T03:50:30.805Z,11.90
2022-10-02T04:00:39.802Z,12.04
2022-10-02T04:10:48.180Z,12.20
2022-10-02T04:20:54.082Z,12.30
2022-10-02T04:30:58.072Z,12.30
2022-10-02T04:41:12.015Z,12.36
2022-10-02T04:51:27.955Z,12.43
2022-10-02T05:01:46.047Z,12.45
2022-10-02T05:12:17.124Z,12.50
2022-10-02T05:22:33.072Z,12.57
2022-10-02T05:32:55.666Z,12.59
2022-10-02T05:43:05.652Z,12.50
2022-10-02T05:53:17.744Z,12.57
2022-10-02T06:03:26.965Z,12.43
2022-10-02T06:13:35.528Z,12.43
2022-10-02T06:23:41.441Z,12.50
2022-10-02T06:33:46.166Z,12.62
2022-10-02T06:44:11.803Z,12.69
2022-10-02T06:54:34.029Z,12.79
2022-10-02T07:04:51.218Z,13.01
2022-10-02T07:15:10.882Z,13.24
2022-10-02T07:25:40.565Z,13.52
2022-10-02T07:35:51.707Z,13.81
2022-10-02T07:46:09.482Z,14.11
2022-10-02T07:56:20.127Z,14.51
2022-10-02T08:06:23.163Z,14.67
2022-10-02T08:16:32.558Z,14.29
2022-10-02T08:26:42.487Z,14.37
2022-10-02T08:36:55.247Z,14.18
2022-10-02T08:47:33.092Z,14.51
2022-10-02T08:58:28.666Z,14.70
2022-10-02T09:09:14.294Z,15.25
2022-10-02T09:19:40.711Z,15.83
2022-10-02T09:30:16.691Z,16.43
2022-10-02T09:41:01.054Z,16.02
2022-10-02T09:51:49.847Z,15.74
2022-10-02T10:02:25.844Z,16.11
2022-10-02T10:12:59.718Z,16.21
2022-10-02T10:23:14.577Z,17.15
2022-10-02T10:33:38.211Z,17.32
2022-10-02T10:44:17.838Z,17.46
2022-10-02T10:54:32.741Z,17.66
2022-10-02T11:04:57.658Z,18.29
2022-10-02T11:15:19.123Z,26.37
2022-10-02T11:26:03.074Z,30.04
2022-10-02T11:36:22.417Z,22.76
2022-10-02T11:46:48.502Z,14.78
2022-10-02T11:57:16.010Z,21.83
2022-10-02T12:07:34.585Z,25.52
2022-10-02T12:18:20.875Z,20.26
2022-10-02T12:28:33.577Z,19.15
2022-10-02T12:38:52.294Z,25.01
2022-10-02T12:49:14.261Z,24.26
2022-10-02T12:59:29.493Z,20.88
2022-10-02T13:09:43.433Z,18.83
2022-10-02T13:20:11.136Z,18.59
2022-10-02T13:30:18.200Z,18.37
2022-10-02T13:40:28.584Z,18.74
2022-10-02T13:50:43.578Z,18.89
2022-10-02T14:00:59.995Z,18.69
2022-10-02T14:11:17.088Z,18.26
2022-10-02T14:21:31.036Z,18.15
2022-10-02T14:32:02.822Z,18.09
2022-10-02T14:42:34.179Z,18.26
2022-10-02T14:53:03.348Z,17.94
2022-10-02T15:03:28.153Z,17.68
2022-10-02T15:13:38.585Z,17.40
2022-10-02T15:23:45.540Z,16.96
2022-10-02T15:34:01.512Z,16.81
2022-10-02T15:44:11.368Z,16.56
2022-10-02T15:54:29.816Z,16.11
2022-10-02T16:04:44.216Z,16.20
2022-10-02T16:14:58.844Z,16.25
2022-10-02T16:25:18.623Z,16.16
2022-10-02T16:35:46.127Z,15.98
2022-10-02T16:46:02.584Z,15.58
2022-10-02T16:56:12.089Z,15.38
2022-10-02T17:06:26.575Z,15.19
2022-10-02T17:16:36.357Z,14.96
2022-10-02T17:26:46.040Z,14.87
2022-10-02T17:36:54.525Z,14.71
2022-10-02T17:47:14.617Z,14.65
2022-10-02T17:57:21.487Z,14.43
2022-10-02T18:07:43.565Z,14.41
2022-10-02T18:18:00.802Z,14.28
2022-10-02T18:28:21.885Z,14.11
2022-10-02T18:38:31.056Z,13.95
2022-10-02T18:49:07.789Z,13.69
2022-10-02T18:59:23.133Z,13.60
2022-10-02T19:09:28.133Z,13.48
2022-10-02T19:19:33.025Z,13.41
2022-10-02T19:29:40.416Z,13.31
2022-10-02T19:39:50.273Z,13.26
2022-10-02T19:49:56.616Z,13.20
2022-10-02T20:00:02.131Z,13.14
2022-10-02T20:10:12.313Z,13.11
2022-10-02T20:20:16.753Z,13.10
2022-10-02T20:30:21.849Z,12.97
2022-10-02T20:40:28.212Z,13.14
2022-10-02T20:50:41.111Z,13.06
2022-10-02T21:01:00.849Z,12.97
2022-10-02T21:11:21.884Z,12.95
2022-10-02T21:21:53.787Z,13.03
2022-10-02T21:32:20.343Z,13.18
2022-10-02T21:43:07.369Z,13.08
2022-10-02T21:53:47.658Z,13.01
2022-10-02T22:04:19.926Z,13.03
2022-10-02T22:14:31.076Z,12.81
2022-10-02T22:25:00.815Z,12.70
2022-10-02T22:35:20.907Z,12.61
2022-10-02T22:45:32.978Z,12.48
2022-10-02T22:55:45.096Z,12.42
2022-10-02T23:05:56.220Z,12.21
2022-10-02T23:16:02.134Z,12.17
2022-10-02T23:26:11.651Z,12.08
2022-10-02T23:36:24.258Z,11.93
2022-10-02T23:46:34.476Z,11.88
2022-10-02T23:56:53.487Z,11.84
